Time;durP1;ratioP1;P1;durP2;ratioP2;P2;SDS_P1;SDS_P2;PMS_P1;PMS_P2;Temp;Humidity;BMP_temperature;BMP_pressure;BME280_temperature;BME280_humidity;BME280_pressure;Samples;Min_cycle;Max_cycle;Signal;HPM_P1;HPM_P2
2022/11/13 00:01:48;;;;;;;8.00;5.18;;;;;;;;;;6202230;23;20088;-75
2022/11/13 00:04:14;;;;;;;9.02;3.33;;;;;;;;;;6203071;23;20000;-76
2022/11/13 00:06:40;;;;;;;7.07;2.90;;;;;;;;;;6204850;23;20068;-76
2022/11/13 00:09:06;;;;;;;7.35;3.00;;;;;;;;;;6177556;23;20014;-77
2022/11/13 00:11:33;;;;;;;7.63;4.63;;;;;;;;;;6206140;23;20083;-76
2022/11/13 00:13:59;;;;;;;7.70;4.20;;;;;;;;;;6205590;23;20005;-77
2022/11/13 00:16:25;;;;;;;12.20;4.00;;;;;;;;;;6207397;23;20013;-77
2022/11/13 00:18:51;;;;;;;4.45;2.72;;;;;;;;;;6204987;23;20532;-77
2022/11/13 00:21:18;;;;;;;6.00;2.17;;;;;;;;;;6207216;23;20008;-78
2022/11/13 00:23:44;;;;;;;3.45;1.92;;;;;;;;;;6204819;23;20084;-77
2022/11/13 00:26:21;;;;;;;1.90;1.00;;;;;;;;;;6207042;23;20040;-78
2022/11/13 00:28:51;;;;;;;1.20;1.00;;;;;;;;;;6204001;23;20012;-77
2022/11/13 00:31:17;;;;;;;3.63;1.48;;;;;;;;;;6206402;23;20009;-77
2022/11/13 00:33:43;;;;;;;2.75;1.20;;;;;;;;;;6206860;23;20051;-77
2022/11/13 00:36:17;;;;;;;2.22;1.33;;;;;;;;;;6206135;23;20044;-76
2022/11/13 00:38:43;;;;;;;3.05;1.40;;;;;;;;;;6204619;23;20081;-78
2022/11/13 00:41:09;;;;;;;1.23;0.90;;;;;;;;;;6206397;23;20426;-77
2022/11/13 00:43:36;;;;;;;1.02;0.73;;;;;;;;;;6207145;23;20039;-78
2022/11/13 00:46:02;;;;;;;1.10;0.85;;;;;;;;;;6206565;23;20001;-77
2022/11/13 00:48:28;;;;;;;7.28;6.68;;;;;;;;;;6204676;23;20528;-77
2022/11/13 00:50:54;;;;;;;5.95;5.45;;;;;;;;;;6206609;23;20004;-76
2022/11/13 00:53:21;;;;;;;5.45;4.95;;;;;;;;;;6206872;23;20147;-77
2022/11/13 00:55:47;;;;;;;1.98;1.38;;;;;;;;;;6204459;23;20012;-73
2022/11/13 00:58:13;;;;;;;1.50;0.80;;;;;;;;;;6179485;23;20005;-78
2022/11/13 01:00:44;;;;;;;1.10;0.80;;;;;;;;;;6206307;23;20552;-76
2022/11/13 01:03:11;;;;;;;1.80;1.50;;;;;;;;;;6206310;23;20011;-78
2022/11/13 01:05:38;;;;;;;1.73;1.02;;;;;;;;;;6206730;23;20040;-75
2022/11/13 01:08:05;;;;;;;3.03;2.30;;;;;;;;;;6204388;23;20001;-78
2022/11/13 01:10:32;;;;;;;3.78;2.20;;;;;;;;;;6206966;23;20035;-76
2022/11/13 01:12:58;;;;;;;5.18;1.98;;;;;;;;;;6206366;23;20007;-78
2022/11/13 01:15:24;;;;;;;2.40;1.77;;;;;;;;;;6206878;23;20019;-77
2022/11/13 01:17:50;;;;;;;36.95;33.30;;;;;;;;;;6199717;23;20355;-77
2022/11/13 01:20:16;;;;;;;5.93;5.35;;;;;;;;;;6203476;23;20197;-76
2022/11/13 01:22:43;;;;;;;26.45;23.92;;;;;;;;;;6206321;23;20005;-77
2022/11/13 01:25:09;;;;;;;19.38;17.42;;;;;;;;;;6205482;23;20001;-77
2022/11/13 01:27:36;;;;;;;15.15;13.55;;;;;;;;;;6191455;23;20004;-78
2022/11/13 01:30:02;;;;;;;8.98;8.05;;;;;;;;;;6178765;23;20009;-77
2022/11/13 01:32:29;;;;;;;6.30;5.22;;;;;;;;;;6204584;23;20008;-78
2022/11/13 01:34:55;;;;;;;16.85;14.82;;;;;;;;;;6205801;23;20062;-77
2022/11/13 01:37:21;;;;;;;30.98;25.40;;;;;;;;;;6205078;23;20004;-77
2022/11/13 01:39:47;;;;;;;50.38;44.78;;;;;;;;;;6206034;23;20001;-77
2022/11/13 01:42:13;;;;;;;48.42;41.33;;;;;;;;;;6204013;23;20173;-78
2022/11/13 01:45:05;;;;;;;49.33;42.63;;;;;;;;;;6205936;23;20000;-77
2022/11/13 01:47:31;;;;;;;67.60;57.08;;;;;;;;;;6148257;23;20031;-77
2022/11/13 01:50:00;;;;;;;45.88;36.65;;;;;;;;;;6204237;23;20015;-78
2022/11/13 01:52:29;;;;;;;49.38;39.42;;;;;;;;;;6202553;23;20689;-78
2022/11/13 01:54:56;;;;;;;32.05;27.10;;;;;;;;;;6186660;23;20005;-78
2022/11/13 01:57:23;;;;;;;46.22;36.63;;;;;;;;;;6205744;23;20008;-78
2022/11/13 01:59:52;;;;;;;41.15;33.33;;;;;;;;;;6179360;23;20001;-77
2022/11/13 02:02:18;;;;;;;58.55;48.40;;;;;;;;;;6205670;23;20004;-77
2022/11/13 02:04:45;;;;;;;40.75;34.13;;;;;;;;;;6206162;23;20009;-78
2022/11/13 02:07:12;;;;;;;48.30;39.90;;;;;;;;;;6203832;23;20208;-77
2022/11/13 02:09:43;;;;;;;57.35;47.88;;;;;;;;;;6206065;23;20005;-78
2022/11/13 02:12:18;;;;;;;48.47;38.72;;;;;;;;;;6206080;23;20008;-77
2022/11/13 02:14:46;;;;;;;49.47;39.58;;;;;;;;;;6204238;23;20110;-77
2022/11/13 02:17:15;;;;;;;65.95;51.53;;;;;;;;;;6194435;23;20017;-75
2022/11/13 02:19:46;;;;;;;58.05;45.35;;;;;;;;;;6205258;23;20001;-77
2022/11/13 02:22:21;;;;;;;27.17;22.73;;;;;;;;;;6205829;23;20422;-78
2022/11/13 02:24:48;;;;;;;21.30;16.27;;;;;;;;;;6204208;23;20008;-78
2022/11/13 02:27:17;;;;;;;10.38;7.50;;;;;;;;;;6204983;23;20008;-77
2022/11/13 02:29:43;;;;;;;53.35;38.53;;;;;;;;;;6205184;23;20005;-78
2022/11/13 02:32:09;;;;;;;21.67;17.27;;;;;;;;;;6205659;23;20005;-77
2022/11/13 02:34:36;;;;;;;16.60;13.32;;;;;;;;;;6204608;23;20457;-78
2022/11/13 02:37:02;;;;;;;23.63;20.35;;;;;;;;;;6200756;23;20013;-78
2022/11/13 02:39:28;;;;;;;15.60;12.73;;;;;;;;;;6204690;23;19996;-78
2022/11/13 02:41:54;;;;;;;15.50;11.38;;;;;;;;;;6205061;23;20011;-78
2022/11/13 02:44:20;;;;;;;16.65;14.88;;;;;;;;;;6205230;23;20007;-78
2022/11/13 02:46:46;;;;;;;21.20;16.40;;;;;;;;;;6203925;23;20001;-78
2022/11/13 02:49:13;;;;;;;31.38;26.40;;;;;;;;;;6205038;23;20535;-78
2022/11/13 02:51:39;;;;;;;14.32;11.98;;;;;;;;;;6205728;23;20009;-78
2022/11/13 02:54:05;;;;;;;35.75;31.80;;;;;;;;;;6204910;23;20000;-79
2022/11/13 02:56:31;;;;;;;28.77;25.60;;;;;;;;;;6200606;23;20404;-79
2022/11/13 02:58:57;;;;;;;37.83;33.85;;;;;;;;;;6202720;23;20491;-79
2022/11/13 03:01:23;;;;;;;28.33;25.50;;;;;;;;;;6196397;23;20004;-76
2022/11/13 03:03:49;;;;;;;31.00;27.90;;;;;;;;;;6205301;23;20079;-78
2022/11/13 03:06:16;;;;;;;5.55;5.05;;;;;;;;;;6205394;23;20004;-78
2022/11/13 03:08:42;;;;;;;2.50;1.23;;;;;;;;;;6196500;23;20001;-77
2022/11/13 03:11:09;;;;;;;3.83;3.42;;;;;;;;;;6204051;23;20033;-78
2022/11/13 03:13:35;;;;;;;22.90;20.63;;;;;;;;;;6200952;23;20011;-77
2022/11/13 03:16:08;;;;;;;6.93;6.22;;;;;;;;;;6172518;23;20024;-77
2022/11/13 03:18:35;;;;;;;12.00;10.80;;;;;;;;;;6172105;23;20009;-77
2022/11/13 03:21:06;;;;;;;7.20;5.22;;;;;;;;;;6201150;23;20004;-76
2022/11/13 03:23:32;;;;;;;6.25;3.30;;;;;;;;;;6199646;23;20001;-78
2022/11/13 03:26:02;;;;;;;7.97;7.25;;;;;;;;;;6201589;23;20004;-76
2022/11/13 03:28:28;;;;;;;6.13;5.45;;;;;;;;;;6200620;23;20011;-78
2022/11/13 03:30:54;;;;;;;12.27;11.23;;;;;;;;;;6174584;23;20314;-78
2022/11/13 03:33:20;;;;;;;5.72;5.22;;;;;;;;;;6199249;23;20004;-77
2022/11/13 03:35:47;;;;;;;8.68;7.88;;;;;;;;;;6201212;23;20020;-77
2022/11/13 03:38:13;;;;;;;11.60;10.70;;;;;;;;;;6200493;23;20591;-77
2022/11/13 03:40:39;;;;;;;3.67;3.20;;;;;;;;;;6201468;23;20066;-77
2022/11/13 03:43:05;;;;;;;2.67;1.60;;;;;;;;;;6201427;23;20001;-77
2022/11/13 03:45:31;;;;;;;2.22;1.83;;;;;;;;;;6201640;23;20011;-78
2022/11/13 03:47:57;;;;;;;4.70;4.30;;;;;;;;;;6198818;23;20091;-78
2022/11/13 03:50:24;;;;;;;4.85;3.80;;;;;;;;;;6201259;23;20012;-77
2022/11/13 03:52:50;;;;;;;2.75;2.30;;;;;;;;;;6199441;23;20006;-77
2022/11/13 03:55:16;;;;;;;4.30;3.90;;;;;;;;;;6199308;23;20012;-77
2022/11/13 03:57:42;;;;;;;3.08;2.78;;;;;;;;;;6198523;23;20337;-77
2022/11/13 04:00:09;;;;;;;3.30;2.80;;;;;;;;;;6199298;23;19997;-77
2022/11/13 04:02:35;;;;;;;3.60;2.60;;;;;;;;;;6174516;23;20008;-77
2022/11/13 04:05:01;;;;;;;2.95;1.70;;;;;;;;;;6200316;23;20168;-77
2022/11/13 04:07:27;;;;;;;2.63;1.42;;;;;;;;;;6173040;23;20444;-78
2022/11/13 04:09:53;;;;;;;1.88;1.40;;;;;;;;;;6200506;23;20719;-76
2022/11/13 04:12:19;;;;;;;2.90;1.58;;;;;;;;;;6199827;23;20004;-77
2022/11/13 04:14:45;;;;;;;1.67;1.27;;;;;;;;;;6199614;23;20005;-76
2022/11/13 04:17:12;;;;;;;1.58;1.30;;;;;;;;;;6198142;23;20040;-76
2022/11/13 04:19:38;;;;;;;1.63;1.30;;;;;;;;;;6198783;23;20008;-77
2022/11/13 04:22:04;;;;;;;2.33;1.33;;;;;;;;;;6200967;23;20418;-77
2022/11/13 04:24:30;;;;;;;5.00;1.30;;;;;;;;;;6199011;23;20004;-76
2022/11/13 04:26:56;;;;;;;1.40;1.30;;;;;;;;;;6200472;23;20001;-79
2022/11/13 04:29:22;;;;;;;2.38;1.60;;;;;;;;;;6200377;23;20418;-76
2022/11/13 04:31:48;;;;;;;2.63;1.40;;;;;;;;;;6200882;23;20567;-77
2022/11/13 04:34:14;;;;;;;2.22;1.60;;;;;;;;;;6200031;23;20028;-77
2022/11/13 04:36:41;;;;;;;1.77;1.50;;;;;;;;;;6198406;23;20158;-77
2022/11/13 04:39:07;;;;;;;1.67;1.10;;;;;;;;;;6199164;23;20310;-76
2022/11/13 04:44:18;;;;;;;2.72;1.50;;;;;;;;;;6198253;23;20066;-75
2022/11/13 04:46:44;;;;;;;2.13;1.77;;;;;;;;;;6200365;23;20012;-77
2022/11/13 04:49:11;;;;;;;3.63;1.60;;;;;;;;;;6199793;23;20004;-77
2022/11/13 04:51:37;;;;;;;3.10;1.60;;;;;;;;;;6200934;23;20000;-76
2022/11/13 04:54:04;;;;;;;2.10;1.15;;;;;;;;;;6199837;23;20009;-77
2022/11/13 04:56:30;;;;;;;4.25;1.55;;;;;;;;;;6199456;23;20496;-77
2022/11/13 04:58:56;;;;;;;3.17;1.67;;;;;;;;;;6198617;23;20455;-78
2022/11/13 05:01:22;;;;;;;3.05;1.75;;;;;;;;;;6200264;23;20448;-76
2022/11/13 05:03:48;;;;;;;2.70;1.40;;;;;;;;;;6200707;23;20000;-76
2022/11/13 05:06:14;;;;;;;3.40;1.83;;;;;;;;;;6200077;23;20035;-77
2022/11/13 05:08:40;;;;;;;2.28;1.58;;;;;;;;;;6198176;23;20480;-77
2022/11/13 05:11:07;;;;;;;2.88;1.55;;;;;;;;;;6199981;23;20012;-76
2022/11/13 05:13:34;;;;;;;3.10;1.55;;;;;;;;;;6200784;23;19996;-77
2022/11/13 05:16:04;;;;;;;2.20;1.60;;;;;;;;;;6199744;23;20524;-77
2022/11/13 05:18:31;;;;;;;2.53;1.42;;;;;;;;;;6199648;23;20043;-77
2022/11/13 05:20:57;;;;;;;5.68;1.80;;;;;;;;;;6198352;23;20001;-77
2022/11/13 05:23:24;;;;;;;3.25;1.90;;;;;;;;;;6200413;23;20009;-77
2022/11/13 05:25:50;;;;;;;2.58;1.65;;;;;;;;;;6200030;23;20024;-77
2022/11/13 05:28:16;;;;;;;1.60;1.48;;;;;;;;;;6200136;23;20000;-77
2022/11/13 05:30:42;;;;;;;2.60;1.67;;;;;;;;;;6196288;23;20015;-77
2022/11/13 05:33:08;;;;;;;3.38;1.92;;;;;;;;;;6170492;23;20468;-77
2022/11/13 05:35:34;;;;;;;2.00;1.75;;;;;;;;;;6197145;23;20008;-78
2022/11/13 05:38:01;;;;;;;3.03;2.10;;;;;;;;;;6196603;23;20008;-78
2022/11/13 05:40:28;;;;;;;2.40;1.80;;;;;;;;;;6196036;23;20008;-78
2022/11/13 05:42:55;;;;;;;3.15;2.10;;;;;;;;;;6169815;23;20382;-77
2022/11/13 05:45:21;;;;;;;3.70;1.77;;;;;;;;;;6197510;23;20430;-78
2022/11/13 05:47:49;;;;;;;3.72;2.03;;;;;;;;;;6196753;23;19996;-76
2022/11/13 05:50:15;;;;;;;3.00;2.10;;;;;;;;;;6197261;23;20619;-76
2022/11/13 05:52:41;;;;;;;2.22;1.60;;;;;;;;;;6197073;23;20334;-78
2022/11/13 05:55:07;;;;;;;3.83;2.10;;;;;;;;;;6195824;23;20729;-77
2022/11/13 05:57:34;;;;;;;2.67;1.73;;;;;;;;;;6196097;23;20005;-77
2022/11/13 06:00:00;;;;;;;4.65;2.00;;;;;;;;;;6197560;23;20004;-77
2022/11/13 06:02:26;;;;;;;3.25;1.55;;;;;;;;;;6195732;23;20020;-77
2022/11/13 06:04:52;;;;;;;3.60;1.88;;;;;;;;;;6198357;23;20005;-76
2022/11/13 06:07:18;;;;;;;5.45;2.13;;;;;;;;;;6196267;23;20706;-76
2022/11/13 06:09:44;;;;;;;2.42;2.03;;;;;;;;;;6195824;23;20032;-77
2022/11/13 06:12:10;;;;;;;4.68;2.30;;;;;;;;;;6197482;23;20004;-76
2022/11/13 06:14:36;;;;;;;2.00;1.77;;;;;;;;;;6197505;23;20009;-77
2022/11/13 06:17:02;;;;;;;2.50;1.70;;;;;;;;;;6194718;23;20021;-77
2022/11/13 06:19:29;;;;;;;2.83;1.80;;;;;;;;;;6195772;23;20005;-77
2022/11/13 06:21:55;;;;;;;3.15;1.90;;;;;;;;;;6197470;23;20013;-77
2022/11/13 06:24:21;;;;;;;4.30;1.70;;;;;;;;;;6196969;23;20251;-76
2022/11/13 06:26:47;;;;;;;3.05;1.63;;;;;;;;;;6197004;23;20071;-77
2022/11/13 06:29:13;;;;;;;4.45;1.88;;;;;;;;;;6170189;23;20040;-78
2022/11/13 06:31:40;;;;;;;4.93;1.98;;;;;;;;;;6195117;23;20020;-78
2022/11/13 06:34:06;;;;;;;5.25;1.70;;;;;;;;;;6196812;23;20103;-77
2022/11/13 06:36:35;;;;;;;3.70;1.70;;;;;;;;;;6196899;23;20008;-77
2022/11/13 06:39:01;;;;;;;2.58;1.60;;;;;;;;;;6196644;23;20005;-78
2022/11/13 06:41:30;;;;;;;3.53;1.88;;;;;;;;;;6197183;23;20440;-78
2022/11/13 06:43:56;;;;;;;3.90;1.70;;;;;;;;;;6170598;23;20316;-77
2022/11/13 06:46:23;;;;;;;3.25;1.67;;;;;;;;;;6195535;23;20005;-76
2022/11/13 06:48:50;;;;;;;2.00;1.73;;;;;;;;;;6196478;23;20007;-77
2022/11/13 06:51:18;;;;;;;4.18;1.92;;;;;;;;;;6196472;23;20012;-77
2022/11/13 06:53:44;;;;;;;4.00;1.90;;;;;;;;;;6196561;23;20008;-77
2022/11/13 06:56:10;;;;;;;3.45;1.65;;;;;;;;;;6198774;23;20023;-76
2022/11/13 06:58:37;;;;;;;1.80;1.50;;;;;;;;;;6196866;23;20010;-79
2022/11/13 07:01:06;;;;;;;10.18;2.28;;;;;;;;;;6199114;23;20004;-79
2022/11/13 07:03:32;;;;;;;1.55;1.30;;;;;;;;;;6199898;23;20004;-80
2022/11/13 07:06:01;;;;;;;2.95;1.50;;;;;;;;;;6198548;23;20585;-79
2022/11/13 07:08:27;;;;;;;2.33;1.30;;;;;;;;;;6194279;23;20043;-79
2022/11/13 07:10:54;;;;;;;2.38;1.50;;;;;;;;;;6199170;23;20005;-81
2022/11/13 07:13:20;;;;;;;1.77;1.40;;;;;;;;;;6198718;23;20094;-79
2022/11/13 07:15:46;;;;;;;2.70;1.63;;;;;;;;;;6198424;23;20016;-80
2022/11/13 07:18:13;;;;;;;2.45;1.95;;;;;;;;;;6197383;23;20028;-79
2022/11/13 07:20:39;;;;;;;3.35;2.08;;;;;;;;;;6196897;23;20008;-79
2022/11/13 07:23:05;;;;;;;4.53;2.40;;;;;;;;;;6198700;23;20012;-80
2022/11/13 07:25:31;;;;;;;3.78;2.28;;;;;;;;;;6198670;23;19997;-79
2022/11/13 07:27:57;;;;;;;4.32;2.30;;;;;;;;;;6198199;23;20119;-79
2022/11/13 07:30:24;;;;;;;6.72;2.38;;;;;;;;;;6196682;23;20009;-80
2022/11/13 07:32:50;;;;;;;4.95;2.20;;;;;;;;;;6173012;23;20005;-79
2022/11/13 07:35:16;;;;;;;3.80;2.40;;;;;;;;;;6198594;23;20012;-79
2022/11/13 07:37:43;;;;;;;4.22;2.22;;;;;;;;;;6198265;23;20079;-79
2022/11/13 07:40:10;;;;;;;4.20;2.22;;;;;;;;;;6196157;23;20005;-79
2022/11/13 07:42:36;;;;;;;3.45;2.60;;;;;;;;;;6197935;23;20011;-79
2022/11/13 07:45:02;;;;;;;4.70;2.50;;;;;;;;;;6197841;23;20345;-80
2022/11/13 07:47:28;;;;;;;4.30;2.30;;;;;;;;;;6196639;23;20421;-80
2022/11/13 07:49:55;;;;;;;4.13;2.10;;;;;;;;;;6198133;23;20081;-79
2022/11/13 07:52:21;;;;;;;3.03;2.40;;;;;;;;;;6199128;23;20015;-79
2022/11/13 07:54:47;;;;;;;3.47;2.58;;;;;;;;;;6198622;23;20020;-78
2022/11/13 07:57:13;;;;;;;3.22;2.17;;;;;;;;;;6198133;23;20020;-79
2022/11/13 07:59:39;;;;;;;4.32;2.50;;;;;;;;;;6197547;23;20001;-79
2022/11/13 08:02:06;;;;;;;5.28;2.75;;;;;;;;;;6196311;23;20008;-79
2022/11/13 08:04:32;;;;;;;3.53;2.42;;;;;;;;;;6198975;23;20512;-80
2022/11/13 08:06:58;;;;;;;4.93;2.70;;;;;;;;;;6198362;23;20008;-80
2022/11/13 08:09:24;;;;;;;4.85;2.58;;;;;;;;;;6194817;23;20631;-80
2022/11/13 08:11:50;;;;;;;5.00;2.65;;;;;;;;;;6198492;23;20367;-77
2022/11/13 08:14:16;;;;;;;2.65;2.28;;;;;;;;;;6196902;23;20011;-79
2022/11/13 08:16:42;;;;;;;5.30;2.38;;;;;;;;;;6198441;23;20016;-79
2022/11/13 08:19:09;;;;;;;3.80;2.50;;;;;;;;;;6197181;23;20038;-80
2022/11/13 08:21:35;;;;;;;3.67;2.53;;;;;;;;;;6196203;23;20584;-80
2022/11/13 08:24:01;;;;;;;3.95;2.22;;;;;;;;;;6198473;23;20480;-80
2022/11/13 08:26:27;;;;;;;3.72;2.58;;;;;;;;;;6198290;23;20016;-81
2022/11/13 08:28:53;;;;;;;119.03;13.82;;;;;;;;;;6197308;23;20100;-82
2022/11/13 08:31:19;;;;;;;10.07;2.92;;;;;;;;;;6196281;23;20008;-81
2022/11/13 08:33:46;;;;;;;8.50;2.30;;;;;;;;;;6199187;23;20004;-82
2022/11/13 08:36:12;;;;;;;4.32;2.33;;;;;;;;;;6198364;23;20020;-80
2022/11/13 08:38:38;;;;;;;4.15;2.13;;;;;;;;;;6197970;23;20663;-76
2022/11/13 08:41:05;;;;;;;4.22;2.00;;;;;;;;;;6197382;23;20021;-82
2022/11/13 08:43:31;;;;;;;2.97;1.83;;;;;;;;;;6197416;23;20004;-87
2022/11/13 08:45:58;;;;;;;6.68;2.70;;;;;;;;;;6196878;23;20040;-79
2022/11/13 08:48:24;;;;;;;3.83;1.75;;;;;;;;;;6197431;23;20012;-83
2022/11/13 08:50:54;;;;;;;2.95;1.70;;;;;;;;;;6198655;23;20008;-83
2022/11/13 08:53:20;;;;;;;3.25;1.92;;;;;;;;;;6198070;23;20130;-83
2022/11/13 08:55:47;;;;;;;2.70;1.90;;;;;;;;;;6197793;23;20158;-84
2022/11/13 08:58:13;;;;;;;3.65;2.10;;;;;;;;;;6197725;23;20004;-83
2022/11/13 09:00:39;;;;;;;2.22;1.70;;;;;;;;;;6196746;23;20004;-79
2022/11/13 09:03:06;;;;;;;4.57;2.15;;;;;;;;;;6198231;23;20004;-77
2022/11/13 09:05:32;;;;;;;3.25;1.95;;;;;;;;;;6198004;23;20009;-78
2022/11/13 09:07:59;;;;;;;4.80;2.15;;;;;;;;;;6194603;23;20012;-78
2022/11/13 09:10:26;;;;;;;3.95;2.00;;;;;;;;;;6195399;23;20008;-78
2022/11/13 09:13:00;;;;;;;4.28;2.33;;;;;;;;;;6197624;23;20011;-78
2022/11/13 09:15:26;;;;;;;4.38;2.55;;;;;;;;;;6197712;23;20129;-78
2022/11/13 09:17:56;;;;;;;4.05;2.55;;;;;;;;;;6196779;23;20700;-80
2022/11/13 09:20:22;;;;;;;5.40;3.05;;;;;;;;;;6195648;23;20050;-77
2022/11/13 09:22:48;;;;;;;5.15;2.38;;;;;;;;;;6197560;23;20584;-78
2022/11/13 09:25:14;;;;;;;4.13;2.83;;;;;;;;;;6196784;23;20004;-78
2022/11/13 09:27:41;;;;;;;4.15;2.70;;;;;;;;;;6195321;23;20003;-79
2022/11/13 09:30:08;;;;;;;5.30;2.80;;;;;;;;;;6166714;23;20009;-81
2022/11/13 09:32:34;;;;;;;4.85;2.90;;;;;;;;;;6194950;23;20076;-81
2022/11/13 09:35:00;;;;;;;4.90;3.15;;;;;;;;;;6197212;23;20208;-80
2022/11/13 09:37:26;;;;;;;5.55;2.67;;;;;;;;;;6196677;23;20016;-81
2022/11/13 09:39:52;;;;;;;3.95;2.63;;;;;;;;;;6196300;23;20314;-83
2022/11/13 09:42:20;;;;;;;7.25;3.45;;;;;;;;;;6196855;23;20595;-81
2022/11/13 09:44:53;;;;;;;9.52;3.00;;;;;;;;;;6195881;23;20004;-80
2022/11/13 09:47:45;;;;;;;40.80;5.07;;;;;;;;;;6197377;23;20028;-80
2022/11/13 09:50:11;;;;;;;9.00;3.78;;;;;;;;;;6190728;23;20005;-81
2022/11/13 09:52:39;;;;;;;5.38;3.03;;;;;;;;;;6196724;23;20015;-78
2022/11/13 09:55:06;;;;;;;5.07;2.80;;;;;;;;;;6196035;23;20522;-77
2022/11/13 09:57:55;;;;;;;13.80;4.57;;;;;;;;;;6194929;23;20142;-77
2022/11/13 10:00:22;;;;;;;7.57;4.63;;;;;;;;;;6154848;23;20004;-76
2022/11/13 10:02:51;;;;;;;5.07;2.83;;;;;;;;;;6196903;23;20148;-77
2022/11/13 10:05:23;;;;;;;4.47;2.50;;;;;;;;;;6196900;23;20023;-80
2022/11/13 10:08:05;;;;;;;9.23;2.65;;;;;;;;;;6194304;23;20011;-80
2022/11/13 10:10:46;;;;;;;4.72;2.78;;;;;;;;;;6196872;23;20032;-81
2022/11/13 10:13:15;;;;;;;15.90;9.70;;;;;;;;;;6196416;23;20104;-80
2022/11/13 10:15:42;;;;;;;10.48;5.78;;;;;;;;;;6170294;23;20035;-79
2022/11/13 10:18:15;;;;;;;4.90;2.85;;;;;;;;;;6195317;23;20000;-81
2022/11/13 10:20:41;;;;;;;8.82;2.67;;;;;;;;;;6194341;23;20005;-80
2022/11/13 10:23:21;;;;;;;3.70;2.00;;;;;;;;;;6169713;23;20019;-81
2022/11/13 10:25:50;;;;;;;10.85;3.38;;;;;;;;;;6195864;23;20476;-76
2022/11/13 10:28:23;;;;;;;4.95;2.25;;;;;;;;;;6198756;23;20511;-77
2022/11/13 10:30:50;;;;;;;4.75;2.10;;;;;;;;;;6201667;23;20446;-78
2022/11/13 10:33:24;;;;;;;29.58;3.85;;;;;;;;;;6199813;23;20046;-80
2022/11/13 10:36:06;;;;;;;8.20;2.58;;;;;;;;;;6201571;23;20020;-77
2022/11/13 10:38:33;;;;;;;3.70;2.38;;;;;;;;;;6201132;23;20123;-78
2022/11/13 10:41:25;;;;;;;3.88;2.10;;;;;;;;;;6198453;23;20699;-77
2022/11/13 10:43:55;;;;;;;2.33;1.95;;;;;;;;;;6193687;23;20419;-78
2022/11/13 10:46:23;;;;;;;3.35;1.98;;;;;;;;;;6196985;23;20004;-77
2022/11/13 10:48:49;;;;;;;6.03;2.40;;;;;;;;;;6198596;23;20008;-82
2022/11/13 10:51:34;;;;;;;3.42;2.28;;;;;;;;;;6197848;23;20115;-76
2022/11/13 10:54:00;;;;;;;3.50;2.10;;;;;;;;;;6197272;23;20015;-81
2022/11/13 10:56:28;;;;;;;3.75;2.03;;;;;;;;;;6198588;23;20017;-79
2022/11/13 10:59:10;;;;;;;3.63;2.15;;;;;;;;;;6196321;23;20009;-75
2022/11/13 11:01:40;;;;;;;2.65;2.13;;;;;;;;;;6172164;23;20005;-78
2022/11/13 11:04:10;;;;;;;4.85;2.60;;;;;;;;;;6198031;23;20084;-80
2022/11/13 11:06:59;;;;;;;6.63;2.72;;;;;;;;;;6197513;23;20011;-76
2022/11/13 11:09:30;;;;;;;4.18;2.58;;;;;;;;;;6180953;23;20734;-78
2022/11/13 11:12:14;;;;;;;4.82;2.65;;;;;;;;;;6199483;23;20008;-80
2022/11/13 11:14:55;;;;;;;6.05;2.70;;;;;;;;;;6199877;23;20055;-86
2022/11/13 11:17:23;;;;;;;3.03;2.30;;;;;;;;;;6196001;23;20388;-80
2022/11/13 11:19:55;;;;;;;5.32;2.22;;;;;;;;;;6198184;23;20008;-86
2022/11/13 11:22:29;;;;;;;2.60;1.80;;;;;;;;;;6199053;23;20010;-80
2022/11/13 11:24:59;;;;;;;4.65;2.08;;;;;;;;;;6199174;23;20456;-82
2022/11/13 11:27:38;;;;;;;4.50;2.05;;;;;;;;;;6171391;23;20040;-85
2022/11/13 11:30:05;;;;;;;3.20;1.92;;;;;;;;;;6172398;23;20024;-84
2022/11/13 11:32:38;;;;;;;3.10;1.95;;;;;;;;;;6197073;23;20004;-84
2022/11/13 11:35:09;;;;;;;3.85;2.30;;;;;;;;;;6198021;23;20028;-85
2022/11/13 11:37:38;;;;;;;3.35;1.95;;;;;;;;;;6172125;23;20087;-81
2022/11/13 11:40:12;;;;;;;6.93;2.47;;;;;;;;;;6198539;23;20539;-80
2022/11/13 11:42:38;;;;;;;3.90;1.90;;;;;;;;;;6197021;23;20011;-82
2022/11/13 11:45:14;;;;;;;4.85;2.30;;;;;;;;;;6198452;23;20009;-82
2022/11/13 11:47:40;;;;;;;5.10;2.10;;;;;;;;;;6198510;23;20000;-79
2022/11/13 11:50:12;;;;;;;4.90;2.53;;;;;;;;;;6197102;23;20054;-82
2022/11/13 11:52:38;;;;;;;;;;;;;;;;;;6197630;23;20012;-79
2022/11/13 11:55:05;;;;;;;3.28;2.08;;;;;;;;;;6196148;23;19911;-78
2022/11/13 11:57:54;;;;;;;4.82;2.35;;;;;;;;;;6198700;23;20008;-84
2022/11/13 12:00:21;;;;;;;2.95;2.05;;;;;;;;;;6197421;23;20502;-86
2022/11/13 12:03:06;;;;;;;3.88;1.92;;;;;;;;;;6170571;23;19997;-83
2022/11/13 12:05:44;;;;;;;7.53;2.65;;;;;;;;;;6198910;23;20012;-85
2022/11/13 12:08:19;;;;;;;3.15;2.20;;;;;;;;;;6198930;23;20421;-85
2022/11/13 12:10:51;;;;;;;5.53;2.67;;;;;;;;;;6171880;23;20012;-79
2022/11/13 12:13:17;;;;;;;3.58;2.40;;;;;;;;;;6198978;23;20091;-78
2022/11/13 12:15:49;;;;;;;2.38;1.95;;;;;;;;;;6199169;23;20008;-81
2022/11/13 12:18:28;;;;;;;2.28;1.95;;;;;;;;;;6197349;23;20475;-79
2022/11/13 12:21:20;;;;;;;4.28;2.05;;;;;;;;;;6199781;23;20227;-86
2022/11/13 12:23:46;;;;;;;3.38;2.00;;;;;;;;;;6195374;23;20009;-84
2022/11/13 12:26:27;;;;;;;3.65;2.30;;;;;;;;;;6171478;23;20187;-82
2022/11/13 12:29:08;;;;;;;3.38;2.17;;;;;;;;;;6172214;23;20013;-84
2022/11/13 12:31:53;;;;;;;2.30;2.10;;;;;;;;;;6171583;23;20426;-86
2022/11/13 12:34:31;;;;;;;3.95;2.20;;;;;;;;;;6199419;23;20112;-85
2022/11/13 12:37:01;;;;;;;6.35;2.28;;;;;;;;;;6171418;23;20026;-85
2022/11/13 12:39:28;;;;;;;3.90;2.30;;;;;;;;;;6197791;23;20009;-82
2022/11/13 12:42:00;;;;;;;5.28;2.45;;;;;;;;;;6198597;23;20000;-83
2022/11/13 12:44:32;;;;;;;2.55;2.10;;;;;;;;;;6198016;23;20070;-78
2022/11/13 12:47:00;;;;;;;3.35;2.20;;;;;;;;;;6169897;23;20008;-81
2022/11/13 12:49:34;;;;;;;5.72;2.85;;;;;;;;;;6197748;23;20076;-77
2022/11/13 12:52:04;;;;;;;4.22;2.60;;;;;;;;;;6197709;23;20012;-83
2022/11/13 12:54:32;;;;;;;2.90;2.00;;;;;;;;;;6198126;23;20501;-82
2022/11/13 12:57:16;;;;;;;3.53;2.03;;;;;;;;;;6171103;23;20020;-82
2022/11/13 12:59:53;;;;;;;4.03;2.17;;;;;;;;;;6166970;23;20009;-83
2022/11/13 13:02:29;;;;;;;3.22;2.00;;;;;;;;;;6197968;23;20508;-81
2022/11/13 13:05:18;;;;;;;4.05;2.28;;;;;;;;;;6170749;23;20005;-79
2022/11/13 13:08:03;;;;;;;3.80;2.38;;;;;;;;;;6194918;23;20012;-80
2022/11/13 13:10:40;;;;;;;5.18;2.20;;;;;;;;;;6197549;23;20980;-77
2022/11/13 13:13:06;;;;;;;3.25;2.30;;;;;;;;;;6197534;23;20496;-74
2022/11/13 13:15:48;;;;;;;4.40;2.28;;;;;;;;;;6197561;23;20004;-80
2022/11/13 13:18:17;;;;;;;4.53;2.28;;;;;;;;;;6171459;23;20635;-78
2022/11/13 13:20:58;;;;;;;3.70;2.10;;;;;;;;;;6197749;23;20757;-79
2022/11/13 13:23:29;;;;;;;3.28;2.30;;;;;;;;;;6197271;23;20390;-80
2022/11/13 13:26:21;;;;;;;5.05;2.65;;;;;;;;;;6197901;23;20013;-77
2022/11/13 13:28:55;;;;;;;3.45;2.35;;;;;;;;;;6191377;23;20155;-76
2022/11/13 13:31:44;;;;;;;4.07;2.13;;;;;;;;;;6171801;23;20376;-74
2022/11/13 13:34:25;;;;;;;3.35;2.40;;;;;;;;;;6171364;23;20012;-80
2022/11/13 13:37:10;;;;;;;2.88;2.10;;;;;;;;;;6169777;23;20020;-76
2022/11/13 13:39:37;;;;;;;3.47;2.15;;;;;;;;;;6197227;23;20007;-76
2022/11/13 13:42:30;;;;;;;3.92;2.20;;;;;;;;;;6198221;23;20082;-79
2022/11/13 13:45:09;;;;;;;3.17;2.28;;;;;;;;;;6198584;23;20058;-80
2022/11/13 13:47:37;;;;;;;5.13;2.25;;;;;;;;;;6171552;23;20539;-79
2022/11/13 13:50:09;;;;;;;5.97;2.20;;;;;;;;;;6197824;23;20131;-77
2022/11/13 13:52:36;;;;;;;7.45;2.80;;;;;;;;;;6197481;23;20066;-77
2022/11/13 13:55:15;;;;;;;3.15;2.40;;;;;;;;;;6198194;23;20004;-77
2022/11/13 13:57:42;;;;;;;4.28;2.65;;;;;;;;;;6195596;23;20572;-76
2022/11/13 14:00:12;;;;;;;3.30;2.35;;;;;;;;;;6196929;23;20000;-78
2022/11/13 14:02:44;;;;;;;2.80;2.17;;;;;;;;;;6198027;23;20009;-78
2022/11/13 14:05:30;;;;;;;4.20;2.30;;;;;;;;;;6195750;23;20433;-77
2022/11/13 14:08:06;;;;;;;3.25;2.20;;;;;;;;;;6197813;23;20070;-79
2022/11/13 14:10:32;;;;;;;2.97;2.45;;;;;;;;;;6171352;23;20008;-79
2022/11/13 14:13:02;;;;;;;2.95;2.25;;;;;;;;;;6197982;23;20036;-77
2022/11/13 14:15:30;;;;;;;4.57;2.30;;;;;;;;;;6195872;23;20496;-78
2022/11/13 14:18:15;;;;;;;5.32;2.65;;;;;;;;;;6170577;23;20020;-78
2022/11/13 14:20:45;;;;;;;7.43;2.85;;;;;;;;;;6171176;23;20009;-79
2022/11/13 14:23:13;;;;;;;5.32;3.08;;;;;;;;;;6197686;23;20011;-78
2022/11/13 14:25:40;;;;;;;3.67;2.47;;;;;;;;;;6196664;23;20039;-77
2022/11/13 14:28:15;;;;;;;4.82;2.30;;;;;;;;;;6197568;23;20362;-78
2022/11/13 14:30:42;;;;;;;3.33;2.17;;;;;;;;;;6197188;23;19997;-79
2022/11/13 14:33:09;;;;;;;3.53;2.35;;;;;;;;;;6197825;23;20499;-80
2022/11/13 14:35:37;;;;;;;3.15;2.35;;;;;;;;;;6197524;23;20647;-77
2022/11/13 14:38:03;;;;;;;3.60;2.50;;;;;;;;;;6197609;23;20001;-77
2022/11/13 14:40:32;;;;;;;5.13;2.67;;;;;;;;;;6194511;23;20004;-76
2022/11/13 14:43:03;;;;;;;4.05;2.58;;;;;;;;;;6197393;23;20630;-77
2022/11/13 14:45:35;;;;;;;3.58;2.65;;;;;;;;;;6197216;23;20028;-76
2022/11/13 14:48:07;;;;;;;3.85;2.15;;;;;;;;;;6171043;23;20012;-75
2022/11/13 14:50:33;;;;;;;;;;;;;;;;;;6196930;23;20001;-79
2022/11/13 14:53:09;;;;;;;7.63;2.67;;;;;;;;;;6195330;23;19991;-79
2022/11/13 14:55:50;;;;;;;5.78;2.88;;;;;;;;;;6197805;23;20012;-78